sensor_id;sensor_type;location;lat;lon;timestamp;P1;durP1;ratioP1;P2;durP2;ratioP2
5752;SDS011;2901;42.140;24.760;2023-08-01T00:01:45;5.30;;;5.10;;
5752;SDS011;2901;42.140;24.760;2023-08-01T00:04:11;4.72;;;4.43;;
5752;SDS011;2901;42.140;24.760;2023-08-01T00:06:36;4.60;;;4.40;;
5752;SDS011;2901;42.140;24.760;2023-08-01T00:09:01;5.05;;;4.75;;
5752;SDS011;2901;42.140;24.760;2023-08-01T00:11:27;4.57;;;4.15;;
5752;SDS011;2901;42.140;24.760;2023-08-01T00:13:52;4.57;;;4.38;;
5752;SDS011;2901;42.140;24.760;2023-08-01T00:16:18;4.55;;;4.35;;
5752;SDS011;2901;42.140;24.760;2023-08-01T00:18:43;5.28;;;4.97;;
5752;SDS011;2901;42.140;24.760;2023-08-01T00:21:08;4.93;;;4.72;;
5752;SDS011;2901;42.140;24.760;2023-08-01T00:23:36;4.85;;;4.55;;
5752;SDS011;2901;42.140;24.760;2023-08-01T00:26:02;5.03;;;4.57;;
5752;SDS011;2901;42.140;24.760;2023-08-01T00:28:28;5.25;;;4.50;;
5752;SDS011;2901;42.140;24.760;2023-08-01T00:31:06;4.53;;;4.15;;
5752;SDS011;2901;42.140;24.760;2023-08-01T00:33:35;5.13;;;4.82;;
5752;SDS011;2901;42.140;24.760;2023-08-01T00:36:01;4.85;;;4.43;;
5752;SDS011;2901;42.140;24.760;2023-08-01T00:38:27;4.32;;;4.03;;
5752;SDS011;2901;42.140;24.760;2023-08-01T00:40:53;4.65;;;4.45;;
5752;SDS011;2901;42.140;24.760;2023-08-01T00:43:18;4.65;;;4.40;;
5752;SDS011;2901;42.140;24.760;2023-08-01T00:45:43;4.78;;;4.47;;
5752;SDS011;2901;42.140;24.760;2023-08-01T00:48:10;4.55;;;4.00;;
5752;SDS011;2901;42.140;24.760;2023-08-01T00:50:35;4.53;;;4.20;;
5752;SDS011;2901;42.140;24.760;2023-08-01T00:53:01;4.15;;;3.95;;
5752;SDS011;2901;42.140;24.760;2023-08-01T00:55:27;4.30;;;4.10;;
5752;SDS011;2901;42.140;24.760;2023-08-01T00:57:54;3.92;;;3.78;;
5752;SDS011;2901;42.140;24.760;2023-08-01T01:00:19;4.10;;;3.90;;
5752;SDS011;2901;42.140;24.760;2023-08-01T01:02:45;4.65;;;4.25;;
5752;SDS011;2901;42.140;24.760;2023-08-01T01:05:11;4.40;;;4.20;;
5752;SDS011;2901;42.140;24.760;2023-08-01T01:07:38;4.32;;;4.13;;
5752;SDS011;2901;42.140;24.760;2023-08-01T01:10:04;4.00;;;3.80;;
5752;SDS011;2901;42.140;24.760;2023-08-01T01:12:30;4.18;;;3.90;;
5752;SDS011;2901;42.140;24.760;2023-08-01T01:14:55;3.47;;;3.28;;
5752;SDS011;2901;42.140;24.760;2023-08-01T01:17:20;4.03;;;3.45;;
5752;SDS011;2901;42.140;24.760;2023-08-01T01:19:46;4.00;;;3.90;;
5752;SDS011;2901;42.140;24.760;2023-08-01T01:22:11;4.05;;;3.78;;
5752;SDS011;2901;42.140;24.760;2023-08-01T01:24:37;3.47;;;3.17;;
5752;SDS011;2901;42.140;24.760;2023-08-01T01:27:04;4.07;;;3.88;;
5752;SDS011;2901;42.140;24.760;2023-08-01T01:29:32;3.53;;;3.33;;
5752;SDS011;2901;42.140;24.760;2023-08-01T01:31:59;3.38;;;3.08;;
5752;SDS011;2901;42.140;24.760;2023-08-01T01:34:26;4.38;;;3.97;;
5752;SDS011;2901;42.140;24.760;2023-08-01T01:36:52;3.70;;;3.50;;
5752;SDS011;2901;42.140;24.760;2023-08-01T01:39:17;3.67;;;3.47;;
5752;SDS011;2901;42.140;24.760;2023-08-01T01:41:43;3.63;;;3.42;;
5752;SDS011;2901;42.140;24.760;2023-08-01T01:44:08;3.53;;;3.42;;
5752;SDS011;2901;42.140;24.760;2023-08-01T01:46:34;4.00;;;3.80;;
5752;SDS011;2901;42.140;24.760;2023-08-01T01:48:59;3.65;;;3.45;;
5752;SDS011;2901;42.140;24.760;2023-08-01T01:51:25;3.60;;;3.40;;
5752;SDS011;2901;42.140;24.760;2023-08-01T01:53:51;4.10;;;3.90;;
5752;SDS011;2901;42.140;24.760;2023-08-01T01:56:17;3.83;;;3.63;;
5752;SDS011;2901;42.140;24.760;2023-08-01T01:58:42;4.25;;;4.05;;
5752;SDS011;2901;42.140;24.760;2023-08-01T02:01:07;3.65;;;3.40;;
5752;SDS011;2901;42.140;24.760;2023-08-01T02:03:33;3.67;;;3.47;;
5752;SDS011;2901;42.140;24.760;2023-08-01T02:05:58;3.60;;;3.40;;
5752;SDS011;2901;42.140;24.760;2023-08-01T02:08:24;3.72;;;3.53;;
5752;SDS011;2901;42.140;24.760;2023-08-01T02:10:49;3.47;;;3.38;;
5752;SDS011;2901;42.140;24.760;2023-08-01T02:13:14;3.25;;;3.03;;
5752;SDS011;2901;42.140;24.760;2023-08-01T02:15:40;3.38;;;3.28;;
5752;SDS011;2901;42.140;24.760;2023-08-01T02:18:05;3.40;;;3.28;;
5752;SDS011;2901;42.140;24.760;2023-08-01T02:20:31;3.35;;;3.25;;
5752;SDS011;2901;42.140;24.760;2023-08-01T02:22:56;3.70;;;3.30;;
5752;SDS011;2901;42.140;24.760;2023-08-01T02:25:22;3.38;;;3.05;;
5752;SDS011;2901;42.140;24.760;2023-08-01T02:27:47;3.58;;;3.47;;
5752;SDS011;2901;42.140;24.760;2023-08-01T02:30:12;3.78;;;3.47;;
5752;SDS011;2901;42.140;24.760;2023-08-01T02:32:38;3.35;;;3.22;;
5752;SDS011;2901;42.140;24.760;2023-08-01T02:35:03;3.92;;;3.58;;
5752;SDS011;2901;42.140;24.760;2023-08-01T02:37:29;3.53;;;3.42;;
5752;SDS011;2901;42.140;24.760;2023-08-01T02:39:55;3.60;;;3.47;;
5752;SDS011;2901;42.140;24.760;2023-08-01T02:42:20;3.58;;;3.45;;
5752;SDS011;2901;42.140;24.760;2023-08-01T02:44:45;3.38;;;3.22;;
5752;SDS011;2901;42.140;24.760;2023-08-01T02:47:11;3.47;;;3.30;;
5752;SDS011;2901;42.140;24.760;2023-08-01T02:49:36;2.95;;;2.75;;
5752;SDS011;2901;42.140;24.760;2023-08-01T02:52:01;3.50;;;3.20;;
5752;SDS011;2901;42.140;24.760;2023-08-01T02:54:27;3.75;;;3.55;;
5752;SDS011;2901;42.140;24.760;2023-08-01T02:56:52;6.32;;;3.63;;
5752;SDS011;2901;42.140;24.760;2023-08-01T02:59:18;6.30;;;4.57;;
5752;SDS011;2901;42.140;24.760;2023-08-01T03:01:43;9.35;;;8.65;;
5752;SDS011;2901;42.140;24.760;2023-08-01T03:04:09;21.88;;;6.78;;
5752;SDS011;2901;42.140;24.760;2023-08-01T03:06:36;3.95;;;3.75;;
5752;SDS011;2901;42.140;24.760;2023-08-01T03:09:02;7.90;;;6.30;;
5752;SDS011;2901;42.140;24.760;2023-08-01T03:11:28;8.32;;;7.63;;
5752;SDS011;2901;42.140;24.760;2023-08-01T03:13:53;9.25;;;6.30;;
5752;SDS011;2901;42.140;24.760;2023-08-01T03:16:18;6.75;;;6.20;;
5752;SDS011;2901;42.140;24.760;2023-08-01T03:18:44;11.32;;;6.05;;
5752;SDS011;2901;42.140;24.760;2023-08-01T03:21:09;6.30;;;5.80;;
5752;SDS011;2901;42.140;24.760;2023-08-01T03:23:35;6.30;;;5.80;;
5752;SDS011;2901;42.140;24.760;2023-08-01T03:26:01;11.10;;;7.43;;
5752;SDS011;2901;42.140;24.760;2023-08-01T03:28:26;7.70;;;6.38;;
5752;SDS011;2901;42.140;24.760;2023-08-01T03:30:52;6.63;;;5.85;;
5752;SDS011;2901;42.140;24.760;2023-08-01T03:33:19;7.07;;;6.28;;
5752;SDS011;2901;42.140;24.760;2023-08-01T03:35:47;6.60;;;5.95;;
5752;SDS011;2901;42.140;24.760;2023-08-01T03:38:12;5.13;;;4.82;;
5752;SDS011;2901;42.140;24.760;2023-08-01T03:40:38;4.43;;;4.20;;
5752;SDS011;2901;42.140;24.760;2023-08-01T03:43:04;4.57;;;4.28;;
5752;SDS011;2901;42.140;24.760;2023-08-01T03:45:30;4.45;;;4.15;;
5752;SDS011;2901;42.140;24.760;2023-08-01T03:47:55;6.95;;;3.75;;
5752;SDS011;2901;42.140;24.760;2023-08-01T03:50:21;3.47;;;3.13;;
5752;SDS011;2901;42.140;24.760;2023-08-01T03:52:46;4.13;;;3.72;;
5752;SDS011;2901;42.140;24.760;2023-08-01T03:55:11;3.60;;;3.40;;
5752;SDS011;2901;42.140;24.760;2023-08-01T03:57:37;4.25;;;3.95;;
5752;SDS011;2901;42.140;24.760;2023-08-01T04:00:04;3.70;;;3.50;;
5752;SDS011;2901;42.140;24.760;2023-08-01T04:02:38;4.82;;;4.10;;
5752;SDS011;2901;42.140;24.760;2023-08-01T04:05:07;4.75;;;4.22;;
5752;SDS011;2901;42.140;24.760;2023-08-01T04:07:34;3.35;;;3.15;;
5752;SDS011;2901;42.140;24.760;2023-08-01T04:10:03;3.65;;;3.47;;
5752;SDS011;2901;42.140;24.760;2023-08-01T04:12:29;4.28;;;3.78;;
5752;SDS011;2901;42.140;24.760;2023-08-01T04:14:57;3.00;;;2.88;;
5752;SDS011;2901;42.140;24.760;2023-08-01T04:17:22;4.88;;;4.57;;
5752;SDS011;2901;42.140;24.760;2023-08-01T04:19:47;4.18;;;3.97;;
5752;SDS011;2901;42.140;24.760;2023-08-01T04:22:13;11.82;;;4.05;;
5752;SDS011;2901;42.140;24.760;2023-08-01T04:24:38;5.10;;;4.70;;
5752;SDS011;2901;42.140;24.760;2023-08-01T04:27:03;10.20;;;4.95;;
5752;SDS011;2901;42.140;24.760;2023-08-01T04:29:29;7.45;;;5.07;;
5752;SDS011;2901;42.140;24.760;2023-08-01T04:31:55;7.03;;;4.28;;
5752;SDS011;2901;42.140;24.760;2023-08-01T04:34:21;6.00;;;4.05;;
5752;SDS011;2901;42.140;24.760;2023-08-01T04:36:46;8.68;;;4.20;;
5752;SDS011;2901;42.140;24.760;2023-08-01T04:39:12;5.00;;;4.00;;
5752;SDS011;2901;42.140;24.760;2023-08-01T04:41:37;4.50;;;4.28;;
5752;SDS011;2901;42.140;24.760;2023-08-01T04:44:03;4.80;;;4.50;;
5752;SDS011;2901;42.140;24.760;2023-08-01T04:46:28;6.50;;;4.80;;
5752;SDS011;2901;42.140;24.760;2023-08-01T04:48:53;4.80;;;3.88;;
5752;SDS011;2901;42.140;24.760;2023-08-01T04:51:19;4.93;;;4.63;;
5752;SDS011;2901;42.140;24.760;2023-08-01T04:53:44;4.50;;;3.67;;
5752;SDS011;2901;42.140;24.760;2023-08-01T04:56:09;6.35;;;5.15;;
5752;SDS011;2901;42.140;24.760;2023-08-01T04:58:35;4.40;;;4.00;;
5752;SDS011;2901;42.140;24.760;2023-08-01T05:01:00;4.80;;;4.30;;
5752;SDS011;2901;42.140;24.760;2023-08-01T05:03:26;4.85;;;4.45;;
5752;SDS011;2901;42.140;24.760;2023-08-01T05:05:51;11.23;;;4.15;;
5752;SDS011;2901;42.140;24.760;2023-08-01T05:08:16;5.78;;;4.70;;
5752;SDS011;2901;42.140;24.760;2023-08-01T05:10:42;14.40;;;4.63;;
5752;SDS011;2901;42.140;24.760;2023-08-01T05:13:07;4.82;;;4.43;;
5752;SDS011;2901;42.140;24.760;2023-08-01T05:15:32;4.75;;;4.30;;
5752;SDS011;2901;42.140;24.760;2023-08-01T05:17:58;6.40;;;4.07;;
5752;SDS011;2901;42.140;24.760;2023-08-01T05:20:23;4.10;;;3.47;;
5752;SDS011;2901;42.140;24.760;2023-08-01T05:22:48;14.75;;;4.03;;
5752;SDS011;2901;42.140;24.760;2023-08-01T05:25:14;4.13;;;3.83;;
5752;SDS011;2901;42.140;24.760;2023-08-01T05:27:39;5.28;;;4.10;;
5752;SDS011;2901;42.140;24.760;2023-08-01T05:30:05;5.00;;;3.72;;
5752;SDS011;2901;42.140;24.760;2023-08-01T05:32:30;7.07;;;3.72;;
5752;SDS011;2901;42.140;24.760;2023-08-01T05:34:56;7.72;;;3.88;;
5752;SDS011;2901;42.140;24.760;2023-08-01T05:37:21;5.90;;;4.85;;
5752;SDS011;2901;42.140;24.760;2023-08-01T05:39:47;4.05;;;3.80;;
5752;SDS011;2901;42.140;24.760;2023-08-01T05:42:12;5.18;;;3.92;;
5752;SDS011;2901;42.140;24.760;2023-08-01T05:44:37;5.30;;;3.65;;
5752;SDS011;2901;42.140;24.760;2023-08-01T05:47:03;3.65;;;3.38;;
5752;SDS011;2901;42.140;24.760;2023-08-01T05:49:28;4.20;;;3.67;;
5752;SDS011;2901;42.140;24.760;2023-08-01T05:51:55;5.00;;;3.65;;
5752;SDS011;2901;42.140;24.760;2023-08-01T05:54:20;3.72;;;3.53;;
5752;SDS011;2901;42.140;24.760;2023-08-01T05:56:46;4.60;;;3.28;;
5752;SDS011;2901;42.140;24.760;2023-08-01T05:59:11;3.78;;;3.10;;
5752;SDS011;2901;42.140;24.760;2023-08-01T06:01:36;3.42;;;3.17;;
5752;SDS011;2901;42.140;24.760;2023-08-01T06:04:02;4.97;;;3.40;;
5752;SDS011;2901;42.140;24.760;2023-08-01T06:06:27;5.57;;;3.58;;
5752;SDS011;2901;42.140;24.760;2023-08-01T06:08:53;3.53;;;3.00;;
5752;SDS011;2901;42.140;24.760;2023-08-01T06:11:18;3.83;;;3.55;;
5752;SDS011;2901;42.140;24.760;2023-08-01T06:13:44;4.95;;;3.15;;
5752;SDS011;2901;42.140;24.760;2023-08-01T06:16:09;3.60;;;2.95;;
5752;SDS011;2901;42.140;24.760;2023-08-01T06:18:36;3.13;;;2.83;;
5752;SDS011;2901;42.140;24.760;2023-08-01T06:21:01;2.65;;;2.53;;
5752;SDS011;2901;42.140;24.760;2023-08-01T06:23:27;4.00;;;3.22;;
5752;SDS011;2901;42.140;24.760;2023-08-01T06:25:53;3.45;;;3.30;;
5752;SDS011;2901;42.140;24.760;2023-08-01T06:28:18;6.72;;;2.90;;
5752;SDS011;2901;42.140;24.760;2023-08-01T06:30:44;7.22;;;3.97;;
5752;SDS011;2901;42.140;24.760;2023-08-01T06:33:10;5.47;;;2.70;;
5752;SDS011;2901;42.140;24.760;2023-08-01T06:35:36;3.03;;;2.92;;
5752;SDS011;2901;42.140;24.760;2023-08-01T06:38:01;3.08;;;2.97;;
5752;SDS011;2901;42.140;24.760;2023-08-01T06:40:26;6.43;;;2.67;;
5752;SDS011;2901;42.140;24.760;2023-08-01T06:42:52;2.97;;;2.60;;
5752;SDS011;2901;42.140;24.760;2023-08-01T06:45:17;2.67;;;2.30;;
5752;SDS011;2901;42.140;24.760;2023-08-01T06:47:42;2.95;;;2.75;;
5752;SDS011;2901;42.140;24.760;2023-08-01T06:50:08;3.38;;;3.17;;
5752;SDS011;2901;42.140;24.760;2023-08-01T06:52:34;3.10;;;2.90;;
5752;SDS011;2901;42.140;24.760;2023-08-01T06:54:59;5.05;;;2.85;;
5752;SDS011;2901;42.140;24.760;2023-08-01T06:57:25;3.85;;;2.45;;
5752;SDS011;2901;42.140;24.760;2023-08-01T06:59:50;2.88;;;2.78;;
5752;SDS011;2901;42.140;24.760;2023-08-01T07:02:15;7.82;;;2.90;;
5752;SDS011;2901;42.140;24.760;2023-08-01T07:04:41;4.20;;;2.30;;
5752;SDS011;2901;42.140;24.760;2023-08-01T07:07:06;6.07;;;2.88;;
5752;SDS011;2901;42.140;24.760;2023-08-01T07:09:33;3.22;;;2.95;;
5752;SDS011;2901;42.140;24.760;2023-08-01T07:11:59;3.03;;;2.40;;
5752;SDS011;2901;42.140;24.760;2023-08-01T07:14:25;2.95;;;2.80;;
5752;SDS011;2901;42.140;24.760;2023-08-01T07:16:50;2.53;;;2.42;;
5752;SDS011;2901;42.140;24.760;2023-08-01T07:19:15;2.78;;;2.60;;
5752;SDS011;2901;42.140;24.760;2023-08-01T07:21:42;3.75;;;3.05;;
5752;SDS011;2901;42.140;24.760;2023-08-01T07:24:10;4.25;;;2.78;;
5752;SDS011;2901;42.140;24.760;2023-08-01T07:26:35;2.38;;;2.17;;
5752;SDS011;2901;42.140;24.760;2023-08-01T07:29:00;2.85;;;2.60;;
5752;SDS011;2901;42.140;24.760;2023-08-01T07:31:26;5.40;;;2.25;;
5752;SDS011;2901;42.140;24.760;2023-08-01T07:33:51;2.80;;;2.70;;
5752;SDS011;2901;42.140;24.760;2023-08-01T07:36:17;2.40;;;2.20;;
5752;SDS011;2901;42.140;24.760;2023-08-01T07:38:42;3.03;;;2.17;;
5752;SDS011;2901;42.140;24.760;2023-08-01T07:41:07;2.78;;;2.58;;
5752;SDS011;2901;42.140;24.760;2023-08-01T07:43:33;2.58;;;2.47;;
5752;SDS011;2901;42.140;24.760;2023-08-01T07:45:59;2.45;;;2.25;;
5752;SDS011;2901;42.140;24.760;2023-08-01T07:48:25;4.55;;;2.33;;
5752;SDS011;2901;42.140;24.760;2023-08-01T07:50:50;3.20;;;2.85;;
5752;SDS011;2901;42.140;24.760;2023-08-01T07:53:16;3.38;;;1.95;;
5752;SDS011;2901;42.140;24.760;2023-08-01T07:55:42;4.00;;;2.45;;
5752;SDS011;2901;42.140;24.760;2023-08-01T07:58:07;2.60;;;2.40;;
5752;SDS011;2901;42.140;24.760;2023-08-01T08:00:34;2.63;;;2.38;;
5752;SDS011;2901;42.140;24.760;2023-08-01T08:03:00;7.43;;;2.20;;
5752;SDS011;2901;42.140;24.760;2023-08-01T08:05:25;2.78;;;2.63;;
5752;SDS011;2901;42.140;24.760;2023-08-01T08:07:51;3.35;;;2.55;;
5752;SDS011;2901;42.140;24.760;2023-08-01T08:10:16;2.67;;;2.58;;
5752;SDS011;2901;42.140;24.760;2023-08-01T08:12:41;3.75;;;2.08;;
5752;SDS011;2901;42.140;24.760;2023-08-01T08:15:07;4.75;;;2.80;;
5752;SDS011;2901;42.140;24.760;2023-08-01T08:17:32;2.97;;;2.80;;
5752;SDS011;2901;42.140;24.760;2023-08-01T08:19:58;2.90;;;2.70;;
5752;SDS011;2901;42.140;24.760;2023-08-01T08:22:23;2.63;;;2.50;;
5752;SDS011;2901;42.140;24.760;2023-08-01T08:24:49;9.38;;;2.40;;
5752;SDS011;2901;42.140;24.760;2023-08-01T08:27:14;2.38;;;2.28;;
5752;SDS011;2901;42.140;24.760;2023-08-01T08:29:40;5.53;;;2.80;;
5752;SDS011;2901;42.140;24.760;2023-08-01T08:32:05;2.42;;;2.17;;
5752;SDS011;2901;42.140;24.760;2023-08-01T08:34:31;18.48;;;3.13;;
5752;SDS011;2901;42.140;24.760;2023-08-01T08:36:57;3.63;;;2.25;;
5752;SDS011;2901;42.140;24.760;2023-08-01T08:39:22;2.85;;;2.50;;
5752;SDS011;2901;42.140;24.760;2023-08-01T08:41:48;2.38;;;2.22;;
5752;SDS011;2901;42.140;24.760;2023-08-01T08:44:17;2.97;;;2.78;;
5752;SDS011;2901;42.140;24.760;2023-08-01T08:46:45;2.78;;;2.55;;
5752;SDS011;2901;42.140;24.760;2023-08-01T08:49:15;3.15;;;2.13;;
5752;SDS011;2901;42.140;24.760;2023-08-01T08:51:41;2.35;;;2.25;;
5752;SDS011;2901;42.140;24.760;2023-08-01T08:54:08;2.50;;;2.10;;
5752;SDS011;2901;42.140;24.760;2023-08-01T08:56:35;3.05;;;2.90;;
5752;SDS011;2901;42.140;24.760;2023-08-01T08:59:01;2.97;;;2.67;;
5752;SDS011;2901;42.140;24.760;2023-08-01T09:01:27;2.78;;;2.67;;
5752;SDS011;2901;42.140;24.760;2023-08-01T09:03:52;2.90;;;2.75;;
5752;SDS011;2901;42.140;24.760;2023-08-01T09:06:20;2.67;;;2.47;;
5752;SDS011;2901;42.140;24.760;2023-08-01T09:08:50;3.03;;;2.88;;
5752;SDS011;2901;42.140;24.760;2023-08-01T09:11:17;6.55;;;3.40;;
5752;SDS011;2901;42.140;24.760;2023-08-01T09:13:42;3.20;;;2.90;;
5752;SDS011;2901;42.140;24.760;2023-08-01T09:16:08;2.75;;;2.65;;
5752;SDS011;2901;42.140;24.760;2023-08-01T09:18:35;3.08;;;2.88;;
5752;SDS011;2901;42.140;24.760;2023-08-01T09:21:11;4.15;;;3.05;;
5752;SDS011;2901;42.140;24.760;2023-08-01T09:23:36;2.60;;;2.50;;
5752;SDS011;2901;42.140;24.760;2023-08-01T09:26:11;2.72;;;2.63;;
5752;SDS011;2901;42.140;24.760;2023-08-01T09:28:40;4.75;;;2.78;;
5752;SDS011;2901;42.140;24.760;2023-08-01T09:31:05;2.80;;;2.60;;
5752;SDS011;2901;42.140;24.760;2023-08-01T09:33:40;2.83;;;2.55;;
5752;SDS011;2901;42.140;24.760;2023-08-01T09:36:07;3.15;;;2.78;;
5752;SDS011;2901;42.140;24.760;2023-08-01T09:38:34;3.10;;;3.00;;
5752;SDS011;2901;42.140;24.760;2023-08-01T09:41:00;2.10;;;2.00;;
5752;SDS011;2901;42.140;24.760;2023-08-01T09:43:32;3.88;;;2.35;;
5752;SDS011;2901;42.140;24.760;2023-08-01T09:46:00;4.63;;;2.45;;
5752;SDS011;2901;42.140;24.760;2023-08-01T09:48:26;2.75;;;2.65;;
5752;SDS011;2901;42.140;24.760;2023-08-01T09:51:09;4.85;;;2.95;;
5752;SDS011;2901;42.140;24.760;2023-08-01T09:53:37;7.20;;;3.95;;
5752;SDS011;2901;42.140;24.760;2023-08-01T09:56:21;2.70;;;2.50;;
5752;SDS011;2901;42.140;24.760;2023-08-01T09:58:47;4.15;;;3.67;;
5752;SDS011;2901;42.140;24.760;2023-08-01T10:01:14;2.60;;;2.40;;
5752;SDS011;2901;42.140;24.760;2023-08-01T10:03:44;3.08;;;2.88;;
5752;SDS011;2901;42.140;24.760;2023-08-01T10:06:13;3.08;;;2.88;;
5752;SDS011;2901;42.140;24.760;2023-08-01T10:08:45;2.83;;;2.70;;
5752;SDS011;2901;42.140;24.760;2023-08-01T10:11:12;2.97;;;2.88;;
5752;SDS011;2901;42.140;24.760;2023-08-01T10:13:40;3.22;;;2.90;;
5752;SDS011;2901;42.140;24.760;2023-08-01T10:16:07;3.20;;;3.10;;
5752;SDS011;2901;42.140;24.760;2023-08-01T10:18:33;2.90;;;2.70;;
5752;SDS011;2901;42.140;24.760;2023-08-01T10:20:59;2.95;;;2.72;;
5752;SDS011;2901;42.140;24.760;2023-08-01T10:23:25;3.38;;;3.13;;
5752;SDS011;2901;42.140;24.760;2023-08-01T10:25:52;3.10;;;3.00;;
5752;SDS011;2901;42.140;24.760;2023-08-01T10:28:18;2.65;;;2.55;;
5752;SDS011;2901;42.140;24.760;2023-08-01T10:30:43;3.58;;;3.38;;
5752;SDS011;2901;42.140;24.760;2023-08-01T10:33:10;3.40;;;3.10;;
5752;SDS011;2901;42.140;24.760;2023-08-01T10:35:38;3.42;;;3.22;;
5752;SDS011;2901;42.140;24.760;2023-08-01T10:38:11;3.10;;;2.90;;
5752;SDS011;2901;42.140;24.760;2023-08-01T10:40:37;3.40;;;3.30;;
5752;SDS011;2901;42.140;24.760;2023-08-01T10:43:04;7.28;;;3.55;;
5752;SDS011;2901;42.140;24.760;2023-08-01T10:45:30;3.55;;;3.45;;
5752;SDS011;2901;42.140;24.760;2023-08-01T10:48:08;3.80;;;3.65;;
5752;SDS011;2901;42.140;24.760;2023-08-01T10:50:35;3.22;;;3.13;;
5752;SDS011;2901;42.140;24.760;2023-08-01T10:53:02;3.42;;;3.13;;
5752;SDS011;2901;42.140;24.760;2023-08-01T10:55:38;3.45;;;3.22;;
5752;SDS011;2901;42.140;24.760;2023-08-01T10:58:04;7.10;;;3.83;;
5752;SDS011;2901;42.140;24.760;2023-08-01T11:00:30;3.40;;;3.30;;
5752;SDS011;2901;42.140;24.760;2023-08-01T11:02:55;7.60;;;3.70;;
5752;SDS011;2901;42.140;24.760;2023-08-01T11:05:21;3.58;;;3.35;;
5752;SDS011;2901;42.140;24.760;2023-08-01T11:07:58;4.28;;;3.78;;
5752;SDS011;2901;42.140;24.760;2023-08-01T11:10:25;3.85;;;3.75;;
5752;SDS011;2901;42.140;24.760;2023-08-01T11:12:52;3.85;;;3.65;;
5752;SDS011;2901;42.140;24.760;2023-08-01T11:15:21;3.55;;;3.30;;
5752;SDS011;2901;42.140;24.760;2023-08-01T11:17:48;4.03;;;3.83;;
5752;SDS011;2901;42.140;24.760;2023-08-01T11:20:15;4.05;;;3.92;;
5752;SDS011;2901;42.140;24.760;2023-08-01T11:22:52;4.10;;;3.90;;
5752;SDS011;2901;42.140;24.760;2023-08-01T11:25:17;8.30;;;3.15;;
5752;SDS011;2901;42.140;24.760;2023-08-01T11:27:43;4.05;;;3.80;;
5752;SDS011;2901;42.140;24.760;2023-08-01T11:30:08;4.22;;;3.85;;
5752;SDS011;2901;42.140;24.760;2023-08-01T11:32:35;4.18;;;3.85;;
5752;SDS011;2901;42.140;24.760;2023-08-01T11:35:01;4.25;;;4.05;;
5752;SDS011;2901;42.140;24.760;2023-08-01T11:37:27;4.00;;;3.78;;
5752;SDS011;2901;42.140;24.760;2023-08-01T11:39:53;4.20;;;4.00;;
5752;SDS011;2901;42.140;24.760;2023-08-01T11:42:19;3.78;;;3.58;;
5752;SDS011;2901;42.140;24.760;2023-08-01T11:44:45;3.85;;;3.40;;
5752;SDS011;2901;42.140;24.760;2023-08-01T11:47:14;3.97;;;3.78;;
5752;SDS011;2901;42.140;24.760;2023-08-01T11:49:47;3.38;;;3.17;;
5752;SDS011;2901;42.140;24.760;2023-08-01T11:52:26;4.20;;;3.80;;
5752;SDS011;2901;42.140;24.760;2023-08-01T11:54:52;4.43;;;4.32;;
5752;SDS011;2901;42.140;24.760;2023-08-01T11:57:21;14.45;;;5.18;;
5752;SDS011;2901;42.140;24.760;2023-08-01T11:59:48;5.68;;;4.70;;
5752;SDS011;2901;42.140;24.760;2023-08-01T12:02:21;4.15;;;3.97;;
5752;SDS011;2901;42.140;24.760;2023-08-01T12:04:50;4.07;;;3.88;;
5752;SDS011;2901;42.140;24.760;2023-08-01T12:07:16;5.22;;;4.82;;
5752;SDS011;2901;42.140;24.760;2023-08-01T12:09:42;4.55;;;4.15;;
5752;SDS011;2901;42.140;24.760;2023-08-01T12:12:08;5.07;;;4.72;;
5752;SDS011;2901;42.140;24.760;2023-08-01T12:14:34;4.38;;;3.97;;
5752;SDS011;2901;42.140;24.760;2023-08-01T12:17:05;4.80;;;4.45;;
5752;SDS011;2901;42.140;24.760;2023-08-01T12:19:30;5.05;;;4.75;;
5752;SDS011;2901;42.140;24.760;2023-08-01T12:21:55;4.80;;;4.35;;
5752;SDS011;2901;42.140;24.760;2023-08-01T12:24:21;4.22;;;4.03;;
5752;SDS011;2901;42.140;24.760;2023-08-01T12:26:46;3.92;;;3.63;;
5752;SDS011;2901;42.140;24.760;2023-08-01T12:29:11;3.88;;;3.78;;
5752;SDS011;2901;42.140;24.760;2023-08-01T12:31:37;3.63;;;3.50;;
5752;SDS011;2901;42.140;24.760;2023-08-01T12:34:02;4.10;;;3.90;;
5752;SDS011;2901;42.140;24.760;2023-08-01T12:36:28;11.57;;;4.43;;
5752;SDS011;2901;42.140;24.760;2023-08-01T12:38:53;4.38;;;4.18;;
5752;SDS011;2901;42.140;24.760;2023-08-01T12:41:19;4.60;;;4.30;;
5752;SDS011;2901;42.140;24.760;2023-08-01T12:43:44;5.25;;;5.05;;
5752;SDS011;2901;42.140;24.760;2023-08-01T12:46:10;4.25;;;4.00;;
5752;SDS011;2901;42.140;24.760;2023-08-01T12:48:35;4.32;;;4.03;;
5752;SDS011;2901;42.140;24.760;2023-08-01T12:51:00;4.15;;;4.05;;
5752;SDS011;2901;42.140;24.760;2023-08-01T12:53:27;5.25;;;5.05;;
5752;SDS011;2901;42.140;24.760;2023-08-01T12:55:53;4.40;;;4.20;;
5752;SDS011;2901;42.140;24.760;2023-08-01T12:58:18;5.60;;;5.10;;
5752;SDS011;2901;42.140;24.760;2023-08-01T13:00:44;4.78;;;4.57;;
5752;SDS011;2901;42.140;24.760;2023-08-01T13:03:10;5.03;;;4.70;;
5752;SDS011;2901;42.140;24.760;2023-08-01T13:05:36;4.35;;;4.05;;
5752;SDS011;2901;42.140;24.760;2023-08-01T13:08:03;3.88;;;3.70;;
5752;SDS011;2901;42.140;24.760;2023-08-01T13:10:30;4.45;;;4.30;;
5752;SDS011;2901;42.140;24.760;2023-08-01T13:12:56;4.07;;;3.88;;
5752;SDS011;2901;42.140;24.760;2023-08-01T13:15:22;4.10;;;4.00;;
5752;SDS011;2901;42.140;24.760;2023-08-01T13:17:48;4.13;;;4.00;;
5752;SDS011;2901;42.140;24.760;2023-08-01T13:20:14;6.00;;;5.50;;
5752;SDS011;2901;42.140;24.760;2023-08-01T13:22:39;4.78;;;4.57;;
5752;SDS011;2901;42.140;24.760;2023-08-01T13:25:05;4.30;;;4.18;;
5752;SDS011;2901;42.140;24.760;2023-08-01T13:27:31;4.40;;;4.20;;
5752;SDS011;2901;42.140;24.760;2023-08-01T13:29:58;3.85;;;3.75;;
5752;SDS011;2901;42.140;24.760;2023-08-01T13:32:24;4.63;;;4.22;;
5752;SDS011;2901;42.140;24.760;2023-08-01T13:34:49;4.32;;;4.13;;
5752;SDS011;2901;42.140;24.760;2023-08-01T13:37:15;4.57;;;4.38;;
5752;SDS011;2901;42.140;24.760;2023-08-01T13:39:40;5.00;;;4.63;;
5752;SDS011;2901;42.140;24.760;2023-08-01T13:42:06;4.70;;;4.50;;
5752;SDS011;2901;42.140;24.760;2023-08-01T13:44:31;5.13;;;4.93;;
5752;SDS011;2901;42.140;24.760;2023-08-01T13:46:58;4.70;;;4.60;;
5752;SDS011;2901;42.140;24.760;2023-08-01T13:49:23;4.60;;;4.40;;
5752;SDS011;2901;42.140;24.760;2023-08-01T13:51:48;4.38;;;4.13;;
5752;SDS011;2901;42.140;24.760;2023-08-01T13:54:14;4.22;;;3.92;;
5752;SDS011;2901;42.140;24.760;2023-08-01T13:56:39;4.75;;;4.55;;
5752;SDS011;2901;42.140;24.760;2023-08-01T13:59:04;4.43;;;4.20;;
5752;SDS011;2901;42.140;24.760;2023-08-01T14:01:30;4.00;;;3.90;;
5752;SDS011;2901;42.140;24.760;2023-08-01T14:03:55;4.55;;;4.35;;
5752;SDS011;2901;42.140;24.760;2023-08-01T14:06:21;4.50;;;4.30;;
5752;SDS011;2901;42.140;24.760;2023-08-01T14:08:46;4.80;;;4.57;;
5752;SDS011;2901;42.140;24.760;2023-08-01T14:11:11;4.38;;;4.20;;
5752;SDS011;2901;42.140;24.760;2023-08-01T14:13:37;5.60;;;5.28;;
5752;SDS011;2901;42.140;24.760;2023-08-01T14:16:02;6.65;;;4.60;;
5752;SDS011;2901;42.140;24.760;2023-08-01T14:18:28;4.78;;;4.60;;
5752;SDS011;2901;42.140;24.760;2023-08-01T14:20:54;5.05;;;4.80;;
5752;SDS011;2901;42.140;24.760;2023-08-01T14:23:20;5.03;;;4.82;;
5752;SDS011;2901;42.140;24.760;2023-08-01T14:25:46;4.60;;;4.40;;
5752;SDS011;2901;42.140;24.760;2023-08-01T14:28:11;4.90;;;4.53;;
5752;SDS011;2901;42.140;24.760;2023-08-01T14:30:37;4.20;;;4.00;;
5752;SDS011;2901;42.140;24.760;2023-08-01T14:33:04;4.75;;;4.55;;
5752;SDS011;2901;42.140;24.760;2023-08-01T14:35:31;5.50;;;5.25;;
5752;SDS011;2901;42.140;24.760;2023-08-01T14:37:57;5.70;;;5.30;;
5752;SDS011;2901;42.140;24.760;2023-08-01T14:40:22;4.95;;;4.75;;
5752;SDS011;2901;42.140;24.760;2023-08-01T14:42:49;4.68;;;4.28;;
5752;SDS011;2901;42.140;24.760;2023-08-01T14:45:14;4.40;;;4.20;;
5752;SDS011;2901;42.140;24.760;2023-08-01T14:47:40;5.05;;;4.85;;
5752;SDS011;2901;42.140;24.760;2023-08-01T14:50:07;5.10;;;4.90;;
5752;SDS011;2901;42.140;24.760;2023-08-01T14:52:34;5.93;;;5.68;;
5752;SDS011;2901;42.140;24.760;2023-08-01T14:54:59;5.78;;;5.57;;